createdAt,value
2019-06-10T00:00:32.284Z,89.30
2019-06-10T00:03:02.842Z,92.20
2019-06-10T00:05:32.914Z,84.00
2019-06-10T00:08:03.910Z,78.10
2019-06-10T00:10:33.254Z,81.10
2019-06-10T00:13:03.719Z,87.60
2019-06-10T00:15:33.512Z,88.50
2019-06-10T00:18:26.929Z,87.00
2019-06-10T00:20:33.684Z,90.90
2019-06-10T00:23:05.209Z,88.40
2019-06-10T00:25:34.098Z,87.20
2019-06-10T00:28:05.684Z,90.00
2019-06-10T00:30:34.554Z,82.90
2019-06-10T00:33:06.070Z,88.10
2019-06-10T00:35:35.346Z,90.20
2019-06-10T00:38:07.063Z,86.00
2019-06-10T00:40:35.740Z,79.70
2019-06-10T00:43:06.604Z,81.80
2019-06-10T00:45:35.819Z,83.20
2019-06-10T00:48:15.750Z,88.00
2019-06-10T00:50:36.273Z,86.90
2019-06-10T00:53:06.254Z,88.30
2019-06-10T00:55:36.822Z,90.50
2019-06-10T00:58:07.483Z,90.00
2019-06-10T01:00:41.185Z,89.50
2019-06-10T01:03:13.455Z,86.60
2019-06-10T01:05:42.478Z,85.00
2019-06-10T01:08:13.897Z,89.30
2019-06-10T01:10:43.736Z,88.50
2019-06-10T01:13:15.308Z,84.60
2019-06-10T01:15:44.207Z,83.50
2019-06-10T01:18:32.055Z,86.00
2019-06-10T01:20:45.062Z,81.60
2019-06-10T01:23:15.715Z,78.70
2019-06-10T01:25:45.304Z,83.70
2019-06-10T01:28:16.833Z,83.80
2019-06-10T01:30:45.809Z,85.80
2019-06-10T01:33:16.394Z,85.40
2019-06-10T01:35:46.353Z,87.70
2019-06-10T01:38:16.304Z,90.20
2019-06-10T01:40:45.818Z,87.70
2019-06-10T01:43:17.279Z,83.30
2019-06-10T01:45:46.095Z,85.60
2019-06-10T01:48:16.393Z,78.90
2019-06-10T01:50:46.194Z,83.30
2019-06-10T01:53:17.178Z,82.20
2019-06-10T01:55:46.741Z,85.80
2019-06-10T01:58:18.107Z,81.90
2019-06-10T02:01:15.637Z,84.50
2019-06-10T02:03:43.674Z,88.20
2019-06-10T02:06:17.663Z,83.70
2019-06-10T02:08:44.130Z,83.30
2019-06-10T02:11:15.546Z,85.00
2019-06-10T02:13:44.601Z,84.20
2019-06-10T02:16:16.155Z,77.50
2019-06-10T02:18:59.458Z,83.40
2019-06-10T02:21:17.927Z,85.60
2019-06-10T02:23:47.386Z,80.50
2019-06-10T02:26:17.961Z,78.20
2019-06-10T02:28:47.568Z,77.90
2019-06-10T02:31:19.938Z,83.40
2019-06-10T02:33:52.059Z,80.70
2019-06-10T02:36:25.593Z,82.20
2019-06-10T02:38:53.726Z,86.70
2019-06-10T02:41:31.082Z,78.50
2019-06-10T02:43:53.453Z,80.20
2019-06-10T02:46:30.673Z,82.30
2019-06-10T02:48:54.616Z,84.10
2019-06-10T02:51:30.252Z,80.90
2019-06-10T02:53:55.268Z,79.10
2019-06-10T02:56:30.052Z,84.40
2019-06-10T02:58:57.842Z,87.20
2019-06-10T03:01:32.262Z,84.60
2019-06-10T03:03:58.704Z,82.70
2019-06-10T03:06:34.824Z,79.00
2019-06-10T03:08:59.328Z,81.30
2019-06-10T03:11:33.503Z,80.50
2019-06-10T03:13:59.798Z,85.80
2019-06-10T03:16:43.554Z,82.90
2019-06-10T03:19:13.343Z,82.80
2019-06-10T03:21:42.853Z,82.90
2019-06-10T03:24:13.158Z,85.10
2019-06-10T03:26:42.974Z,86.70
2019-06-10T03:29:12.932Z,82.00
2019-06-10T03:31:47.785Z,86.60
2019-06-10T03:34:14.772Z,84.40
2019-06-10T03:36:44.641Z,88.90
2019-06-10T03:39:13.987Z,85.50
2019-06-10T03:41:43.441Z,84.40
2019-06-10T03:44:13.314Z,87.00
2019-06-10T03:46:43.202Z,90.80
2019-06-10T03:49:12.630Z,91.30
2019-06-10T03:51:44.274Z,90.40
2019-06-10T03:54:13.603Z,90.40
2019-06-10T03:56:43.179Z,91.30
2019-06-10T03:59:15.298Z,92.30
2019-06-10T04:01:44.630Z,93.20
2019-06-10T04:04:13.906Z,93.20
2019-06-10T04:06:44.155Z,93.20
2019-06-10T04:09:14.820Z,92.70
2019-06-10T04:11:44.128Z,92.90
2019-06-10T04:14:13.501Z,93.80
2019-06-10T04:16:43.314Z,92.80
2019-06-10T04:19:13.245Z,93.20
2019-06-10T04:21:44.399Z,92.90
2019-06-10T04:24:13.665Z,95.40
2019-06-10T04:26:43.530Z,94.40
2019-06-10T04:29:13.124Z,95.10
2019-06-10T04:31:42.739Z,95.60
2019-06-10T04:34:12.432Z,95.70
2019-06-10T04:36:42.299Z,96.10
2019-06-10T04:39:12.508Z,95.70
2019-06-10T04:41:42.629Z,93.90
2019-06-10T04:44:13.202Z,93.70
2019-06-10T04:46:42.933Z,94.90
2019-06-10T04:49:13.207Z,95.80
2019-06-10T04:51:43.379Z,96.40
2019-06-10T04:54:13.441Z,95.10
2019-06-10T04:56:43.139Z,95.70
2019-06-10T04:59:12.755Z,96.20
2019-06-10T05:01:42.542Z,96.00
2019-06-10T05:04:12.643Z,96.60
2019-06-10T05:06:42.304Z,96.00
2019-06-10T05:09:12.440Z,96.10
2019-06-10T05:11:43.038Z,96.70
2019-06-10T05:14:13.263Z,96.70
2019-06-10T05:16:43.870Z,96.00
2019-06-10T05:19:13.159Z,96.20
2019-06-10T05:21:42.602Z,96.50
2019-06-10T05:24:12.582Z,96.10
2019-06-10T05:26:42.555Z,96.50
2019-06-10T05:29:12.297Z,95.60
2019-06-10T05:31:43.573Z,96.50
2019-06-10T05:34:13.093Z,96.20
2019-06-10T05:36:43.645Z,96.00
2019-06-10T05:39:13.139Z,96.00
2019-06-10T05:41:43.490Z,95.70
2019-06-10T05:44:13.401Z,96.30
2019-06-10T05:46:43.479Z,96.70
2019-06-10T05:49:13.088Z,96.90
2019-06-10T05:51:42.529Z,96.10
2019-06-10T05:54:12.773Z,96.60
2019-06-10T05:56:43.290Z,96.00
2019-06-10T05:59:13.252Z,95.50
2019-06-10T06:01:43.222Z,96.30
2019-06-10T06:04:12.771Z,96.60
2019-06-10T06:06:44.989Z,96.20
2019-06-10T06:09:13.167Z,95.80
2019-06-10T06:11:43.102Z,97.10
2019-06-10T06:14:13.258Z,97.60
2019-06-10T06:16:43.382Z,97.10
2019-06-10T06:19:12.810Z,97.00
2019-06-10T06:21:47.343Z,95.90
2019-06-10T06:24:13.097Z,95.80
2019-06-10T06:26:43.172Z,96.70
2019-06-10T06:29:13.109Z,96.40
2019-06-10T06:31:43.102Z,95.80
2019-06-10T06:34:13.825Z,96.70
2019-06-10T06:36:42.467Z,96.80
2019-06-10T06:39:12.889Z,97.00
2019-06-10T06:41:42.899Z,96.30
2019-06-10T06:44:12.973Z,95.80
2019-06-10T06:46:43.044Z,95.40
2019-06-10T06:49:12.965Z,95.60
2019-06-10T06:51:54.661Z,95.50
2019-06-10T06:54:15.519Z,95.60
2019-06-10T06:56:44.768Z,95.20
2019-06-10T06:59:14.167Z,95.40
2019-06-10T07:01:44.473Z,95.30
2019-06-10T07:04:13.793Z,94.90
2019-06-10T07:06:43.530Z,94.70
2019-06-10T07:09:13.434Z,94.20
2019-06-10T07:11:45.107Z,93.50
2019-06-10T07:14:14.787Z,93.80
2019-06-10T07:16:46.401Z,93.50
2019-06-10T07:19:14.855Z,93.30
2019-06-10T07:22:02.381Z,93.50
2019-06-10T07:24:14.851Z,93.60
2019-06-10T07:26:51.025Z,91.80
2019-06-10T07:29:14.997Z,91.70
2019-06-10T07:31:46.036Z,91.20
2019-06-10T07:34:15.063Z,91.80
2019-06-10T07:36:45.451Z,91.20
2019-06-10T07:39:14.784Z,91.10
2019-06-10T07:41:47.495Z,90.90
2019-06-10T07:44:14.976Z,91.20
2019-06-10T07:46:45.629Z,91.30
2019-06-10T07:49:14.867Z,91.30
2019-06-10T07:51:46.360Z,90.00
2019-06-10T07:54:15.156Z,90.20
2019-06-10T07:56:50.392Z,88.50
2019-06-10T07:59:15.480Z,89.20
2019-06-10T08:01:50.936Z,89.10
2019-06-10T08:04:15.429Z,88.50
2019-06-10T08:06:45.823Z,86.10
2019-06-10T08:09:15.148Z,86.10
2019-06-10T08:11:46.855Z,86.50
2019-06-10T08:14:15.147Z,87.60
2019-06-10T08:16:46.553Z,88.70
2019-06-10T08:19:30.176Z,87.60
2019-06-10T08:21:49.204Z,88.70
2019-06-10T08:24:17.463Z,88.00
2019-06-10T08:26:47.677Z,89.20
2019-06-10T08:29:17.050Z,86.00
2019-06-10T08:31:49.400Z,88.30
2019-06-10T08:34:17.046Z,87.70
2019-06-10T08:36:50.104Z,88.50
2019-06-10T08:39:17.155Z,89.00
2019-06-10T08:41:49.067Z,88.30
2019-06-10T08:44:17.158Z,86.20
2019-06-10T08:46:47.248Z,83.70
2019-06-10T08:49:17.087Z,83.70
2019-06-10T08:51:48.859Z,84.10
2019-06-10T08:54:17.289Z,83.50
2019-06-10T08:56:50.308Z,83.70
2019-06-10T08:59:17.324Z,85.10
2019-06-10T09:01:51.547Z,84.00
2019-06-10T09:04:17.515Z,82.90
2019-06-10T09:06:53.842Z,84.10
2019-06-10T09:09:23.232Z,84.20
2019-06-10T09:12:28.349Z,83.90
2019-06-10T09:14:44.017Z,85.10
2019-06-10T09:17:12.503Z,85.50
2019-06-10T09:19:44.222Z,85.40
2019-06-10T09:22:12.618Z,85.90
2019-06-10T09:24:45.570Z,84.50
2019-06-10T09:27:13.531Z,84.90
2019-06-10T09:29:45.707Z,83.00
2019-06-10T09:32:12.504Z,84.40
2019-06-10T09:34:47.140Z,86.30
2019-06-10T09:37:13.105Z,81.90
2019-06-10T09:39:50.470Z,82.20
2019-06-10T09:42:14.479Z,81.20
2019-06-10T09:44:46.916Z,80.40
2019-06-10T09:47:16.224Z,81.30
2019-06-10T09:49:47.545Z,80.10
2019-06-10T09:52:16.467Z,81.30
2019-06-10T09:54:49.832Z,81.20
2019-06-10T09:57:16.984Z,82.40
2019-06-10T09:59:49.778Z,82.50
2019-06-10T10:02:17.427Z,82.30
2019-06-10T10:04:52.238Z,83.50
2019-06-10T10:07:18.357Z,82.90
2019-06-10T10:09:57.066Z,82.50
2019-06-10T10:12:26.478Z,83.40
2019-06-10T10:14:57.579Z,82.90
2019-06-10T10:17:27.026Z,84.30
2019-06-10T10:19:57.129Z,82.80
2019-06-10T10:22:26.520Z,83.20
2019-06-10T10:24:57.021Z,83.80
2019-06-10T10:27:26.344Z,82.70
2019-06-10T10:29:57.338Z,82.60
2019-06-10T10:32:27.043Z,82.50
2019-06-10T10:34:56.601Z,82.30
2019-06-10T10:37:26.131Z,82.90
2019-06-10T10:39:56.549Z,82.90
2019-06-10T10:42:39.144Z,82.10
2019-06-10T10:44:59.181Z,82.90
2019-06-10T10:47:28.356Z,83.00
2019-06-10T10:49:57.893Z,83.50
2019-06-10T10:52:27.394Z,83.30
2019-06-10T10:54:56.926Z,82.60
2019-06-10T10:57:26.394Z,81.90
2019-06-10T10:59:56.237Z,82.80
2019-06-10T11:02:27.317Z,79.40
2019-06-10T11:04:57.203Z,81.10
2019-06-10T11:07:26.738Z,78.60
2019-06-10T11:09:56.863Z,76.70
2019-06-10T11:12:27.311Z,77.60
2019-06-10T11:15:01.446Z,76.00
2019-06-10T11:17:33.463Z,75.30
2019-06-10T11:20:03.802Z,76.60
2019-06-10T11:22:39.489Z,76.50
2019-06-10T11:25:19.413Z,76.60
2019-06-10T11:27:50.023Z,79.10
2019-06-10T11:30:20.297Z,75.50
2019-06-10T11:32:50.707Z,75.40
2019-06-10T11:35:20.605Z,78.20
2019-06-10T11:37:51.730Z,80.50
2019-06-10T11:40:26.547Z,80.60
2019-06-10T11:42:59.478Z,80.60
2019-06-10T11:45:27.049Z,81.60
2019-06-10T11:47:58.211Z,81.00
2019-06-10T11:50:27.979Z,81.40
2019-06-10T11:53:01.382Z,81.20
2019-06-10T11:55:30.029Z,78.20
2019-06-10T11:57:59.394Z,79.30
2019-06-10T12:00:28.966Z,79.30
2019-06-10T12:02:58.990Z,77.90
2019-06-10T12:05:32.709Z,79.30
2019-06-10T12:08:02.870Z,79.50
2019-06-10T12:10:33.069Z,79.70
2019-06-10T12:13:07.115Z,79.90
2019-06-10T12:16:12.660Z,80.20
2019-06-10T12:18:08.358Z,80.50
2019-06-10T12:20:38.092Z,80.70
2019-06-10T12:23:07.371Z,76.70
2019-06-10T12:25:39.567Z,77.10
2019-06-10T12:28:08.052Z,79.00
2019-06-10T12:30:37.363Z,80.00
2019-06-10T12:33:06.556Z,80.60
2019-06-10T12:35:35.726Z,80.80
2019-06-10T12:38:06.256Z,79.70
2019-06-10T12:40:35.574Z,79.70
2019-06-10T12:43:07.006Z,79.80
2019-06-10T12:45:35.849Z,80.30
2019-06-10T12:48:06.937Z,80.00
2019-06-10T12:50:36.067Z,77.60
2019-06-10T12:53:08.762Z,77.70
2019-06-10T12:55:43.550Z,77.90
2019-06-10T12:58:08.936Z,76.80
2019-06-10T13:00:46.215Z,75.90
2019-06-10T13:03:15.925Z,77.40
2019-06-10T13:05:44.350Z,75.70
2019-06-10T13:08:15.454Z,76.90
2019-06-10T13:10:46.035Z,75.80
2019-06-10T13:13:15.142Z,74.40
2019-06-10T13:15:44.507Z,75.10
2019-06-10T13:18:19.179Z,77.40
2019-06-10T13:20:45.327Z,77.30
2019-06-10T13:23:23.641Z,76.10
2019-06-10T13:25:54.352Z,75.30
2019-06-10T13:28:16.382Z,74.40
2019-06-10T13:30:45.560Z,75.10
2019-06-10T13:33:14.933Z,76.00
2019-06-10T13:35:44.479Z,75.00
2019-06-10T13:38:12.752Z,75.70
2019-06-10T13:40:42.952Z,76.60
2019-06-10T13:43:13.241Z,75.70
2019-06-10T13:45:43.049Z,74.10
2019-06-10T13:48:14.830Z,72.40
2019-06-10T13:50:43.190Z,73.50
2019-06-10T13:53:13.539Z,72.70
2019-06-10T13:55:43.714Z,73.40
2019-06-10T13:58:14.675Z,72.60
2019-06-10T14:00:46.717Z,73.10
2019-06-10T14:03:16.226Z,73.10
2019-06-10T14:05:45.895Z,73.70
2019-06-10T14:08:15.522Z,73.40
2019-06-10T14:10:44.012Z,73.60
2019-06-10T14:13:15.398Z,73.90
2019-06-10T14:15:44.852Z,70.80
2019-06-10T14:18:15.324Z,69.10
2019-06-10T14:20:45.304Z,70.50
2019-06-10T14:23:17.516Z,70.80
2019-06-10T14:25:45.647Z,70.20
2019-06-10T14:28:34.936Z,69.50
2019-06-10T14:30:46.340Z,70.00
2019-06-10T14:33:16.715Z,70.40
2019-06-10T14:35:48.491Z,69.90
2019-06-10T14:38:17.965Z,68.20
2019-06-10T14:40:47.682Z,66.00
2019-06-10T14:43:16.410Z,66.40
2019-06-10T14:45:45.743Z,67.40
2019-06-10T14:48:17.227Z,66.30
2019-06-10T14:50:45.966Z,66.80
2019-06-10T14:53:16.897Z,68.60
2019-06-10T14:55:46.265Z,66.50
2019-06-10T14:58:18.686Z,66.20
2019-06-10T15:00:46.608Z,68.60
2019-06-10T15:03:19.651Z,68.50
2019-06-10T15:05:46.795Z,70.20
2019-06-10T15:08:17.339Z,68.30
2019-06-10T15:10:46.722Z,69.30
2019-06-10T15:13:16.151Z,70.00
2019-06-10T15:15:48.544Z,69.60
2019-06-10T15:18:18.275Z,66.90
2019-06-10T15:20:48.014Z,68.70
2019-06-10T15:23:19.076Z,67.20
2019-06-10T15:25:52.878Z,67.40
2019-06-10T15:28:20.415Z,67.20
2019-06-10T15:30:52.249Z,67.20
2019-06-10T15:33:23.573Z,67.80
2019-06-10T15:35:53.678Z,67.90
2019-06-10T15:38:23.515Z,67.40
2019-06-10T15:40:53.466Z,67.10
2019-06-10T15:43:23.708Z,66.50
2019-06-10T15:45:53.207Z,65.30
2019-06-10T15:48:25.256Z,65.90
2019-06-10T15:50:54.964Z,66.60
2019-06-10T15:53:25.700Z,66.10
2019-06-10T15:56:13.165Z,67.70
2019-06-10T15:58:28.675Z,68.80
2019-06-10T16:00:58.019Z,69.10
2019-06-10T16:03:27.330Z,65.00
2019-06-10T16:05:56.555Z,64.10
2019-06-10T16:08:25.803Z,65.40
2019-06-10T16:10:55.017Z,65.20
2019-06-10T16:13:25.906Z,63.80
2019-06-10T16:15:55.363Z,64.50
2019-06-10T16:18:27.603Z,64.40
2019-06-10T16:20:56.241Z,63.70
2019-06-10T16:23:26.764Z,64.80
2019-06-10T16:25:56.251Z,63.30
2019-06-10T16:28:27.802Z,63.20
2019-06-10T16:30:57.055Z,64.80
2019-06-10T16:33:27.825Z,65.60
2019-06-10T16:35:57.419Z,63.00
2019-06-10T16:38:27.299Z,62.30
2019-06-10T16:40:56.620Z,62.80
2019-06-10T16:43:27.249Z,61.30
2019-06-10T16:45:56.828Z,62.70
2019-06-10T16:48:26.112Z,65.70
2019-06-10T16:50:55.412Z,65.60
2019-06-10T16:53:29.886Z,64.70
2019-06-10T16:55:55.723Z,67.20
2019-06-10T16:58:27.133Z,64.80
2019-06-10T17:00:55.019Z,64.90
2019-06-10T17:03:27.147Z,64.70
2019-06-10T17:05:56.349Z,64.10
2019-06-10T17:08:28.112Z,66.20
2019-06-10T17:10:57.168Z,67.90
2019-06-10T17:13:28.973Z,67.00
2019-06-10T17:15:59.168Z,64.70
2019-06-10T17:18:29.980Z,65.00
2019-06-10T17:21:02.923Z,66.30
2019-06-10T17:23:36.324Z,65.50
2019-06-10T17:26:02.563Z,66.40
2019-06-10T17:28:36.358Z,67.10
2019-06-10T17:31:03.861Z,67.70
2019-06-10T17:33:35.683Z,68.70
2019-06-10T17:36:04.718Z,69.60
2019-06-10T17:38:33.875Z,69.80
2019-06-10T17:41:03.381Z,70.20
2019-06-10T17:43:34.311Z,70.70
2019-06-10T17:46:04.704Z,71.00
2019-06-10T17:48:34.035Z,71.00
2019-06-10T17:51:03.521Z,71.80
2019-06-10T17:53:34.897Z,71.80
2019-06-10T17:56:03.774Z,72.20
2019-06-10T17:58:48.776Z,73.30
2019-06-10T18:01:05.429Z,72.60
2019-06-10T18:03:35.826Z,73.10
2019-06-10T18:06:05.569Z,73.50
2019-06-10T18:08:36.407Z,74.10
2019-06-10T18:11:05.846Z,74.70
2019-06-10T18:13:36.513Z,74.50
2019-06-10T18:16:05.957Z,74.60
2019-06-10T18:18:37.141Z,74.30
2019-06-10T18:21:06.669Z,74.70
2019-06-10T18:23:36.654Z,74.90
2019-06-10T18:26:12.376Z,75.40
2019-06-10T18:28:57.861Z,76.00
2019-06-10T18:31:12.983Z,76.40
2019-06-10T18:33:42.553Z,76.00
2019-06-10T18:36:12.266Z,76.50
2019-06-10T18:38:43.541Z,77.00
2019-06-10T18:41:13.095Z,76.40
2019-06-10T18:43:42.556Z,77.10
2019-06-10T18:46:12.784Z,77.70
2019-06-10T18:48:43.139Z,78.20
2019-06-10T18:51:12.725Z,77.50
2019-06-10T18:53:42.697Z,77.40
2019-06-10T18:56:12.912Z,77.70
2019-06-10T18:58:42.721Z,78.00
2019-06-10T19:01:12.444Z,78.40
2019-06-10T19:03:42.919Z,78.70
2019-06-10T19:06:12.798Z,78.70
2019-06-10T19:08:43.982Z,79.10
2019-06-10T19:11:12.153Z,79.50
2019-06-10T19:13:43.535Z,80.10
2019-06-10T19:16:13.186Z,80.20
2019-06-10T19:18:43.280Z,80.70
2019-06-10T19:21:13.236Z,80.60
2019-06-10T19:23:43.880Z,81.10
2019-06-10T19:26:13.726Z,81.30
2019-06-10T19:28:45.122Z,81.30
2019-06-10T19:31:14.308Z,81.30
2019-06-10T19:33:45.195Z,81.30
2019-06-10T19:36:15.076Z,81.80
2019-06-10T19:38:44.506Z,81.70
2019-06-10T19:41:14.059Z,82.20
2019-06-10T19:43:45.302Z,82.60
2019-06-10T19:46:14.395Z,82.50
2019-06-10T19:48:55.520Z,82.50
2019-06-10T19:51:14.794Z,83.00
2019-06-10T19:53:45.161Z,83.10
2019-06-10T19:56:14.698Z,83.30
2019-06-10T19:58:46.280Z,83.70
2019-06-10T20:01:15.305Z,83.80
2019-06-10T20:03:46.460Z,83.90
2019-06-10T20:06:15.708Z,84.80
2019-06-10T20:08:46.231Z,85.30
2019-06-10T20:11:15.519Z,85.40
2019-06-10T20:13:46.577Z,84.90
2019-06-10T20:16:15.707Z,86.20
2019-06-10T20:18:47.610Z,85.20
2019-06-10T20:21:16.040Z,86.40
2019-06-10T20:23:45.891Z,85.80
2019-06-10T20:26:15.502Z,85.80
2019-06-10T20:28:46.716Z,85.80
2019-06-10T20:31:15.675Z,85.80
2019-06-10T20:33:44.853Z,86.10
2019-06-10T20:36:21.946Z,86.50
2019-06-10T20:38:47.263Z,86.80
2019-06-10T20:41:15.723Z,86.80
2019-06-10T20:43:47.168Z,87.00
2019-06-10T20:46:15.855Z,87.70
2019-06-10T20:48:47.141Z,88.10
2019-06-10T20:51:15.916Z,88.40
2019-06-10T20:53:46.346Z,88.20
2019-06-10T20:56:16.163Z,88.60
2019-06-10T20:58:46.481Z,89.00
2019-06-10T21:01:16.300Z,89.00
2019-06-10T21:03:47.580Z,89.50
2019-06-10T21:06:18.954Z,90.00
2019-06-10T21:08:51.168Z,90.20
2019-06-10T21:11:20.243Z,90.10
2019-06-10T21:13:52.105Z,90.20
2019-06-10T21:16:22.825Z,90.10
2019-06-10T21:18:55.579Z,90.20
2019-06-10T21:21:22.791Z,90.40
2019-06-10T21:23:55.183Z,90.50
2019-06-10T21:26:24.572Z,90.60
2019-06-10T21:28:54.981Z,90.50
2019-06-10T21:31:24.681Z,90.70
2019-06-10T21:33:55.822Z,90.80
2019-06-10T21:36:24.792Z,91.00
2019-06-10T21:38:55.707Z,91.00
2019-06-10T21:41:25.264Z,91.00
2019-06-10T21:43:59.155Z,91.10
2019-06-10T21:46:25.342Z,91.10
2019-06-10T21:48:55.849Z,91.40
2019-06-10T21:51:25.845Z,91.60
2019-06-10T21:53:55.227Z,91.60
2019-06-10T21:56:24.858Z,91.80
2019-06-10T21:58:55.572Z,91.90
2019-06-10T22:01:25.351Z,92.20
2019-06-10T22:04:00.548Z,92.30
2019-06-10T22:06:25.383Z,92.70
2019-06-10T22:08:56.488Z,92.90
2019-06-10T22:11:25.622Z,92.90
2019-06-10T22:13:56.237Z,93.10
2019-06-10T22:16:25.722Z,93.20
2019-06-10T22:18:55.056Z,93.40
2019-06-10T22:21:24.429Z,93.50
2019-06-10T22:23:55.317Z,93.40
2019-06-10T22:26:24.425Z,93.60
2019-06-10T22:28:55.795Z,93.70
2019-06-10T22:31:26.340Z,93.80
2019-06-10T22:33:57.440Z,93.30
2019-06-10T22:36:26.333Z,93.20
2019-06-10T22:38:58.656Z,93.20
2019-06-10T22:41:26.454Z,93.80
2019-06-10T22:43:59.821Z,94.00
2019-06-10T22:46:29.117Z,94.30
2019-06-10T22:48:59.480Z,94.80
2019-06-10T22:51:28.767Z,94.60
2019-06-10T22:54:17.036Z,94.90
2019-06-10T22:56:47.331Z,94.80
2019-06-10T22:59:16.430Z,94.80
2019-06-10T23:01:45.784Z,94.60
2019-06-10T23:04:14.971Z,95.10
2019-06-10T23:06:44.077Z,95.30
2019-06-10T23:09:13.418Z,95.40
2019-06-10T23:11:42.758Z,95.80
2019-06-10T23:14:12.423Z,95.30
2019-06-10T23:16:42.717Z,95.40
2019-06-10T23:19:13.053Z,95.80
2019-06-10T23:21:42.505Z,95.20
2019-06-10T23:24:13.423Z,95.30
2019-06-10T23:26:42.627Z,95.20
2019-06-10T23:29:12.270Z,95.50
2019-06-10T23:31:51.714Z,95.50
2019-06-10T23:34:17.655Z,95.30
2019-06-10T23:36:43.857Z,95.40
2019-06-10T23:39:13.236Z,95.70
2019-06-10T23:41:43.357Z,95.70
2019-06-10T23:44:12.867Z,96.20
2019-06-10T23:46:43.307Z,96.30
2019-06-10T23:49:12.552Z,96.60
2019-06-10T23:51:42.346Z,96.20
2019-06-10T23:54:12.505Z,96.20
2019-06-10T23:56:42.698Z,96.00
2019-06-10T23:59:12.065Z,96.20
